»·PEaware :: AAL6295 KLAS-KPHX

AAL6295 :: KLAS-KPHX

FLIGHT INFORMATION

Flight Status: Arrived
Operator:
American Airlines
More flights by this operator :: More flights under this callsign
Pilot: Antonio A. (14008)
Aircraft: CANADAIR CL-600 CRJ-700
(CRJ7)
More flights by this aircraft type
Origin: KLAS McCarran Intl
United States
Destination: KPHX Phoenix Sky Harbor Intl
United States
More flights between these airports :: More routes between these airports
Route: +PRFUM4 PRFUM WOTRO BRUSR1
File this flight plan on PilotEdge
Remarks: aal6295 is / L
Altitude:
(Current/Filed)
25,000ft
Speed:
(Current/Filed)
330kts
Departed: 07-Oct-17 07:03 PM
Arrived: 07-Oct-17 07:52 PM
Distance/Time
Traveled:
222nm/0:49
Distance/Time
To Go:
Arrived

Flight Plot

Page will automatically refresh every two minutes.

Flight plan parsing failed; only flown route is shown


Map Options




Map Legend


Flown Route
Filed Route
Departure Airport
Arrival Airport
Navaid (VOR, NDB)
Fix

Horizontal Profiles

Position Reports

Time Latitude Longitude Heading Altitude Ground
Speed
07-Oct-17 18:46 36.079859 -115.145918 323 2188ft 0kts
07-Oct-17 18:47 36.079859 -115.145918 323 2188ft 0kts
07-Oct-17 18:48 36.079859 -115.145918 323 2188ft 0kts
07-Oct-17 18:49 36.079859 -115.145918 323 2188ft 0kts
07-Oct-17 18:50 36.079859 -115.145918 323 2188ft 0kts
07-Oct-17 18:51 36.079859 -115.145918 323 2188ft 0kts
07-Oct-17 18:52 36.079859 -115.145918 323 2188ft 0kts
07-Oct-17 18:53 36.079859 -115.145918 323 2188ft 0kts
07-Oct-17 18:54 36.079859 -115.145918 323 2188ft 0kts
07-Oct-17 18:55 36.079859 -115.145918 323 2188ft 0kts
07-Oct-17 18:56 36.079584 -115.145669 323 2188ft 2kts
07-Oct-17 18:57 36.079465 -115.145561 323 2188ft 0kts
07-Oct-17 18:58 36.079466 -115.145562 323 2188ft 0kts
07-Oct-17 18:59 36.079469 -115.145565 323 2188ft 0kts
07-Oct-17 19:00 36.079471 -115.145567 323 2188ft 0kts
07-Oct-17 19:01 36.079474 -115.145569 323 2188ft 0kts
07-Oct-17 19:02 36.079458 -115.145130 219 2188ft 11kts
07-Oct-17 19:03 36.078257 -115.140876 89 2188ft 20kts
07-Oct-17 19:04 36.078234 -115.131905 90 2188ft 31kts
07-Oct-17 19:05 36.078145 -115.123349 114 2188ft 16kts
07-Oct-17 19:06 36.077084 -115.121310 181 2188ft 0kts
07-Oct-17 19:07 36.076368 -115.130873 270 2188ft 117kts
07-Oct-17 19:08 36.076984 -115.202778 270 3583ft 227kts
07-Oct-17 19:09 36.072470 -115.288694 234 5293ft 263kts
07-Oct-17 19:10 36.003663 -115.316127 194 6905ft 272kts
07-Oct-17 19:11 35.928714 -115.323673 178 8627ft 276kts
07-Oct-17 19:12 35.852557 -115.303913 139 10417ft 296kts
07-Oct-17 19:13 35.827859 -115.199845 93 12274ft 340kts
07-Oct-17 19:14 35.825146 -115.080610 86 14081ft 356kts
07-Oct-17 19:15 35.831024 -114.956983 84 15884ft 367kts
07-Oct-17 19:16 35.839396 -114.829851 83 17684ft 378kts
07-Oct-17 19:17 35.849472 -114.696765 84 19500ft 401kts
07-Oct-17 19:18 35.829301 -114.563715 119 21320ft 414kts
07-Oct-17 19:20 35.770742 -114.438942 122 23138ft 428kts
07-Oct-17 19:20 35.716970 -114.334176 124 24625ft 439kts
07-Oct-17 19:21 35.646928 -114.202128 124 24866ft 483kts
07-Oct-17 19:23 35.558132 -114.040412 124 24888ft 494kts
07-Oct-17 19:24 35.481921 -113.899644 124 24907ft 494kts
07-Oct-17 19:24 35.418761 -113.782138 124 24930ft 495kts
07-Oct-17 19:26 35.330276 -113.617454 124 24920ft 495kts
07-Oct-17 19:26 35.266949 -113.500583 124 24913ft 495kts
07-Oct-17 19:27 35.190742 -113.360815 124 24901ft 495kts
07-Oct-17 19:28 35.113369 -113.221197 124 24889ft 495kts
07-Oct-17 19:29 35.039653 -113.085417 125 24107ft 443kts
07-Oct-17 19:30 34.976975 -112.971630 125 23873ft 382kts
07-Oct-17 19:31 34.915949 -112.862000 125 23864ft 403kts
07-Oct-17 19:32 34.852434 -112.748054 125 23864ft 410kts
07-Oct-17 19:33 34.788045 -112.632759 125 23869ft 411kts
07-Oct-17 19:34 34.723641 -112.517948 126 23861ft 412kts
07-Oct-17 19:35 34.642863 -112.419305 142 22305ft 405kts
07-Oct-17 19:36 34.556204 -112.335642 144 20717ft 392kts
07-Oct-17 19:37 34.471492 -112.255244 147 19217ft 378kts
07-Oct-17 19:38 34.377627 -112.211665 169 17675ft 349kts
07-Oct-17 19:39 34.285328 -112.187630 171 15872ft 331kts
07-Oct-17 19:40 34.196712 -112.165443 170 14075ft 321kts
07-Oct-17 19:41 34.111341 -112.143098 168 12828ft 308kts
07-Oct-17 19:42 34.028531 -112.113391 163 11129ft 305kts
07-Oct-17 19:43 33.950423 -112.081875 163 10984ft 294kts
07-Oct-17 19:44 33.871083 -112.049683 163 10041ft 306kts
07-Oct-17 19:45 33.792850 -112.017887 163 9014ft 285kts
07-Oct-17 19:46 33.717746 -111.987503 162 8044ft 270kts
07-Oct-17 19:47 33.648116 -111.959392 162 7247ft 266kts
07-Oct-17 19:48 33.582692 -111.932934 162 6992ft 235kts
07-Oct-17 19:49 33.529124 -111.893888 112 6479ft 241kts
07-Oct-17 19:50 33.522901 -111.815879 112 5041ft 223kts
07-Oct-17 19:51 33.469815 -111.788591 169 4021ft 194kts
07-Oct-17 19:52 33.435075 -111.813393 249 3809ft 177kts
07-Oct-17 19:53 33.440465 -111.865991 273 2977ft 139kts
07-Oct-17 19:54 33.440740 -111.913398 268 2408ft 142kts
07-Oct-17 19:55 33.440781 -111.961207 269 1698ft 146kts
07-Oct-17 19:56 33.440821 -112.006219 270 1142ft 31kts
07-Oct-17 19:57 33.438683 -112.008686 193 1142ft 8kts
07-Oct-17 19:58 33.438342 -112.008693 180 1142ft 0kts
07-Oct-17 19:59 33.438342 -112.008693 180 1142ft 0kts
07-Oct-17 20:00 33.438342 -112.008693 180 1142ft 0kts
07-Oct-17 20:01 33.438342 -112.008693 180 1142ft 0kts
07-Oct-17 20:02 33.438342 -112.008693 180 1142ft 0kts
07-Oct-17 20:03 33.438342 -112.008693 180 1142ft 0kts

Navigation Log

Ident Type
Flight plan parsing failed, navigation log unavailable